Time;durP1;ratioP1;P1;durP2;ratioP2;P2;SDS_P1;SDS_P2;PMS_P1;PMS_P2;Temp;Humidity;BMP_temperature;BMP_pressure;BME280_temperature;BME280_humidity;BME280_pressure;Samples;Min_cycle;Max_cycle;Signal;HPM_P1;HPM_P2
2021/01/05 00:00:20;;;;;;;48.47;38.22;;;19.70;34.70;;;;;;5080689;28;20066;-52
2021/01/05 00:02:47;;;;;;;41.37;36.77;;;19.70;34.80;;;;;;5079844;28;20028;-52
2021/01/05 00:05:14;;;;;;;41.55;35.35;;;19.70;34.70;;;;;;5077971;28;20032;-52
2021/01/05 00:07:41;;;;;;;38.85;34.35;;;19.70;34.70;;;;;;5076152;28;20028;-53
2021/01/05 00:10:08;;;;;;;39.08;34.85;;;19.70;34.80;;;;;;5078019;28;20028;-53
2021/01/05 00:12:34;;;;;;;41.38;35.08;;;19.60;34.80;;;;;;5076710;28;20060;-53
2021/01/05 00:15:00;;;;;;;38.20;34.15;;;19.60;34.80;;;;;;5078683;28;20089;-52
2021/01/05 00:17:26;;;;;;;38.03;33.00;;;19.70;34.90;;;;;;5077014;28;20076;-51
2021/01/05 00:19:53;;;;;;;37.67;33.03;;;19.60;34.80;;;;;;5076699;28;20028;-51
2021/01/05 00:22:19;;;;;;;37.85;32.95;;;19.60;34.80;;;;;;5086168;28;20093;-52
2021/01/05 00:24:45;;;;;;;36.65;32.35;;;19.60;34.90;;;;;;5082852;28;20075;-51
2021/01/05 00:27:12;;;;;;;34.97;30.55;;;19.60;34.90;;;;;;5075597;28;20490;-53
2021/01/05 00:29:38;;;;;;;35.40;30.40;;;19.60;34.90;;;;;;5080435;28;20500;-53
2021/01/05 00:32:21;;;;;;;33.85;30.15;;;19.50;34.90;;;;;;5078691;28;20028;-52
2021/01/05 00:34:48;;;;;;;33.03;28.83;;;19.50;35.00;;;;;;5078670;28;20039;-53
2021/01/05 00:37:15;;;;;;;33.90;29.90;;;19.50;35.00;;;;;;5078946;28;20047;-51
2021/01/05 00:39:43;;;;;;;30.05;26.73;;;19.50;35.00;;;;;;5081695;28;20028;-51
2021/01/05 00:42:09;;;;;;;29.50;26.35;;;19.50;35.00;;;;;;5078178;28;20028;-51
2021/01/05 00:44:35;;;;;;;29.55;26.35;;;19.50;35.00;;;;;;5076963;28;20103;-53
2021/01/05 00:47:02;;;;;;;29.20;26.08;;;19.50;35.00;;;;;;5075815;28;20082;-52
2021/01/05 00:49:28;;;;;;;29.42;25.23;;;19.40;35.00;;;;;;5074307;28;20103;-51
2021/01/05 00:51:55;;;;;;;29.65;25.15;;;19.50;35.10;;;;;;5075486;28;20498;-51
2021/01/05 00:54:22;;;;;;;27.67;24.13;;;19.40;35.00;;;;;;5077057;28;20412;-51
2021/01/05 00:56:58;;;;;;;26.90;24.05;;;19.40;35.00;;;;;;5078368;28;20024;-53
2021/01/05 00:59:24;;;;;;;26.50;22.65;;;19.40;35.10;;;;;;5073971;28;20035;-51
2021/01/05 01:01:50;;;;;;;28.30;24.63;;;19.40;35.00;;;;;;5074644;28;20055;-51
2021/01/05 01:04:16;;;;;;;27.90;23.52;;;19.40;35.10;;;;;;5076706;28;20028;-52
2021/01/05 01:06:43;;;;;;;25.80;23.05;;;19.30;35.10;;;;;;5082896;28;20033;-51
2021/01/05 01:09:09;;;;;;;23.02;20.63;;;19.30;35.00;;;;;;5078082;28;20032;-52
2021/01/05 01:11:37;;;;;;;23.15;20.63;;;19.30;35.10;;;;;;5081076;28;20474;-52
2021/01/05 01:14:05;;;;;;;23.02;19.70;;;19.30;35.10;;;;;;5075856;28;20060;-52
2021/01/05 01:16:31;;;;;;;23.95;20.33;;;19.30;35.10;;;;;;5079036;28;20024;-52
2021/01/05 01:18:58;;;;;;;26.33;21.17;;;19.30;35.10;;;;;;5079041;28;20401;-52
2021/01/05 01:21:24;;;;;;;23.70;21.00;;;19.30;35.20;;;;;;5073107;28;20111;-52
2021/01/05 01:23:51;;;;;;;23.02;19.63;;;19.30;35.10;;;;;;5073367;28;20039;-52
2021/01/05 01:26:17;;;;;;;21.40;18.83;;;19.30;35.20;;;;;;5073540;28;20031;-52
2021/01/05 01:28:43;;;;;;;20.25;18.02;;;19.20;35.10;;;;;;5075072;28;20024;-52
2021/01/05 01:31:12;;;;;;;19.98;17.80;;;19.30;35.20;;;;;;5082182;28;20470;-52
2021/01/05 01:33:39;;;;;;;19.90;17.80;;;19.20;35.10;;;;;;5074826;28;20435;-52
2021/01/05 01:36:06;;;;;;;18.30;16.40;;;19.20;35.20;;;;;;5079282;28;20032;-51
2021/01/05 01:38:33;;;;;;;19.75;17.70;;;19.20;35.20;;;;;;5080811;28;20028;-51
2021/01/05 01:41:02;;;;;;;19.80;17.10;;;19.20;35.20;;;;;;5078472;28;20032;-52
2021/01/05 01:43:31;;;;;;;20.30;17.15;;;19.20;35.20;;;;;;5075977;28;20032;-52
2021/01/05 01:46:05;;;;;;;18.33;16.42;;;19.20;35.30;;;;;;5082729;28;20653;-53
2021/01/05 01:48:37;;;;;;;17.58;15.80;;;19.20;35.30;;;;;;5075953;28;20028;-53
2021/01/05 01:51:04;;;;;;;19.98;15.82;;;19.20;35.30;;;;;;5079950;28;20036;-52
2021/01/05 01:53:42;;;;;;;18.42;14.88;;;19.20;35.30;;;;;;5072553;28;20471;-53
2021/01/05 01:56:35;;;;;;;16.75;14.85;;;19.10;35.30;;;;;;5076495;28;20036;-52
2021/01/05 02:00:06;;;;;;;18.48;14.75;;;19.10;35.30;;;;;;5070401;28;20025;-53
2021/01/05 02:02:58;;;;;;;16.40;14.15;;;19.10;35.30;;;;;;5080282;28;20169;-52
2021/01/05 02:05:35;;;;;;;16.02;13.68;;;19.20;35.30;;;;;;5076670;28;20111;-51
2021/01/05 02:08:27;;;;;;;15.43;13.82;;;19.10;35.40;;;;;;5074173;28;20028;-51
2021/01/05 02:11:18;;;;;;;19.27;13.13;;;19.10;35.40;;;;;;5089740;28;20036;-52
2021/01/05 02:14:27;;;;;;;16.35;13.10;;;19.10;35.40;;;;;;5077470;28;20031;-52
2021/01/05 02:17:10;;;;;;;14.65;13.05;;;19.10;35.30;;;;;;5060667;28;20049;-52
2021/01/05 02:19:46;;;;;;;14.38;12.43;;;19.10;35.50;;;;;;5074698;28;20068;-52
2021/01/05 02:22:39;;;;;;;14.85;12.18;;;19.10;35.50;;;;;;5072643;28;20036;-52
2021/01/05 02:25:20;;;;;;;13.80;11.60;;;19.10;35.60;;;;;;5077145;28;20024;-52
2021/01/05 02:27:59;;;;;;;14.45;11.38;;;19.00;35.50;;;;;;5080716;28;20042;-52
2021/01/05 02:30:34;;;;;;;15.95;12.05;;;19.00;35.50;;;;;;5075987;28;20020;-52
2021/01/05 02:33:34;;;;;;;13.20;11.32;;;19.00;35.60;;;;;;5076008;28;20590;-52
2021/01/05 02:36:28;;;;;;;13.65;10.88;;;19.00;35.60;;;;;;5077371;28;20024;-51
2021/01/05 02:39:48;;;;;;;15.95;11.25;;;19.00;35.60;;;;;;5076986;28;20505;-51
2021/01/05 02:42:38;;;;;;;11.32;9.70;;;19.00;35.50;;;;;;5080708;28;20036;-52
2021/01/05 02:45:26;;;;;;;13.20;10.52;;;19.00;35.50;;;;;;5076384;28;20386;-52
2021/01/05 02:48:41;;;;;;;11.77;10.20;;;19.00;35.60;;;;;;5073178;28;20038;-52
2021/01/05 02:51:54;;;;;;;11.27;9.77;;;18.90;35.70;;;;;;5081405;28;20085;-52
2021/01/05 02:55:22;;;;;;;11.90;10.00;;;19.00;35.70;;;;;;5074251;28;20511;-52
2021/01/05 02:58:30;;;;;;;10.60;9.50;;;18.90;35.60;;;;;;5042889;28;20036;-52
2021/01/05 03:01:41;;;;;;;10.80;8.88;;;18.90;35.70;;;;;;5074869;28;20082;-52
2021/01/05 03:04:26;;;;;;;9.88;8.73;;;18.90;35.70;;;;;;5076696;28;20031;-52
2021/01/05 03:07:27;;;;;;;11.07;9.15;;;18.90;35.70;;;;;;4994837;28;20034;-52
2021/01/05 03:10:21;;;;;;;10.75;8.43;;;18.80;35.70;;;;;;5078628;28;20217;-53
2021/01/05 03:13:34;;;;;;;10.35;8.57;;;18.80;35.70;;;;;;5074277;28;20527;-52
2021/01/05 03:16:27;;;;;;;8.38;7.47;;;18.80;35.70;;;;;;5079605;28;20036;-52
2021/01/05 03:19:40;;;;;;;9.13;7.72;;;18.80;35.70;;;;;;5077188;28;20055;-53
2021/01/05 03:22:29;;;;;;;9.75;7.97;;;18.80;35.70;;;;;;5086677;28;20434;-52
2021/01/05 03:25:14;;;;;;;10.23;7.35;;;18.80;35.80;;;;;;5078218;28;20035;-53
2021/01/05 03:28:03;;;;;;;9.75;6.93;;;18.80;35.70;;;;;;5069071;28;20047;-53
2021/01/05 03:31:14;;;;;;;8.18;6.45;;;18.80;35.80;;;;;;5076384;28;20036;-52
2021/01/05 03:34:13;;;;;;;9.88;7.28;;;18.70;35.80;;;;;;5054151;28;20131;-52
2021/01/05 03:36:57;;;;;;;7.82;7.03;;;18.70;35.70;;;;;;5077172;28;20111;-53
2021/01/05 03:39:42;;;;;;;10.13;7.13;;;18.70;35.80;;;;;;5078195;28;20064;-53
2021/01/05 03:42:26;;;;;;;8.30;7.10;;;18.70;35.80;;;;;;5075759;28;20123;-53
2021/01/05 03:45:22;;;;;;;7.20;6.35;;;18.70;35.90;;;;;;5079133;28;20385;-53
2021/01/05 03:48:08;;;;;;;7.90;6.88;;;18.70;36.00;;;;;;5081857;28;20032;-52
2021/01/05 03:51:07;;;;;;;8.20;5.85;;;18.70;35.90;;;;;;5046813;28;20496;-52
2021/01/05 03:53:52;;;;;;;6.55;5.47;;;18.70;36.00;;;;;;5077017;28;20389;-52
2021/01/05 03:56:37;;;;;;;7.13;6.10;;;18.60;35.90;;;;;;5077589;28;20776;-52
2021/01/05 03:59:21;;;;;;;8.02;5.55;;;18.70;36.00;;;;;;5081276;28;20039;-53
2021/01/05 04:02:06;;;;;;;7.45;5.65;;;18.70;36.00;;;;;;5082101;28;20079;-52
2021/01/05 04:04:32;;;;;;;6.95;5.97;;;18.60;35.90;;;;;;5074970;28;20028;-52
2021/01/05 04:06:58;;;;;;;8.52;5.10;;;18.60;36.00;;;;;;5081316;28;20033;-53
2021/01/05 04:09:24;;;;;;;6.22;5.30;;;18.60;36.00;;;;;;5082536;28;20095;-53
2021/01/05 04:11:49;;;;;;;5.95;4.35;;;18.60;36.10;;;;;;5074992;28;20116;-53
2021/01/05 04:14:15;;;;;;;5.78;5.18;;;18.60;36.10;;;;;;5078032;28;20363;-52
2021/01/05 04:16:46;;;;;;;6.13;5.00;;;18.60;36.10;;;;;;5080850;28;20492;-53
2021/01/05 04:19:13;;;;;;;5.53;4.45;;;18.60;36.20;;;;;;5085779;28;20032;-52
2021/01/05 04:21:39;;;;;;;6.28;4.53;;;18.60;36.10;;;;;;5082517;28;20509;-52
2021/01/05 04:24:05;;;;;;;4.60;4.20;;;18.60;36.10;;;;;;5078111;28;20032;-53
2021/01/05 04:26:33;;;;;;;5.00;4.45;;;18.60;36.20;;;;;;5081543;28;20032;-52
2021/01/05 04:28:59;;;;;;;5.07;4.28;;;18.50;36.20;;;;;;5059627;28;20039;-53
2021/01/05 04:31:25;;;;;;;5.55;4.20;;;18.60;36.20;;;;;;5079686;28;20024;-52
2021/01/05 04:33:51;;;;;;;8.02;4.38;;;18.50;36.10;;;;;;5081007;28;20024;-53
2021/01/05 04:36:18;;;;;;;4.20;3.75;;;18.50;36.20;;;;;;5083359;28;20035;-53
2021/01/05 04:38:44;;;;;;;7.38;4.38;;;18.50;36.20;;;;;;5080505;28;20017;-52
2021/01/05 04:41:19;;;;;;;6.30;3.95;;;18.50;36.20;;;;;;5085737;28;20532;-52
2021/01/05 04:43:47;;;;;;;7.78;4.18;;;18.50;36.30;;;;;;5076554;28;20147;-53
2021/01/05 04:46:17;;;;;;;5.10;4.03;;;18.50;36.20;;;;;;5080598;28;20024;-52
2021/01/05 04:48:56;;;;;;;4.55;3.60;;;18.50;36.30;;;;;;5079628;28;20429;-53
2021/01/05 04:51:44;;;;;;;4.35;3.67;;;18.50;36.30;;;;;;5083441;28;20028;-52
2021/01/05 04:54:18;;;;;;;4.78;3.78;;;18.50;36.30;;;;;;5076893;28;20466;-52
2021/01/05 04:56:53;;;;;;;5.97;3.70;;;18.50;36.20;;;;;;5080990;28;20028;-52
2021/01/05 04:59:24;;;;;;;4.00;3.60;;;18.50;36.30;;;;;;5099151;28;20033;-52
2021/01/05 05:01:50;;;;;;;;;;;18.50;36.30;;;;;;5070119;28;20039;-52
2021/01/05 05:04:39;;;;;;;4.18;3.63;;;18.50;36.20;;;;;;5076142;28;19915;-51
2021/01/05 05:07:28;;;;;;;3.47;2.85;;;18.50;36.20;;;;;;5082547;28;20082;-52
2021/01/05 05:10:10;;;;;;;4.55;3.10;;;18.50;36.20;;;;;;5078233;28;20032;-52
2021/01/05 05:12:48;;;;;;;4.63;3.70;;;18.50;36.30;;;;;;5079387;28;20036;-52
2021/01/05 05:15:22;;;;;;;4.60;3.60;;;18.50;36.40;;;;;;5076062;28;20494;-52
2021/01/05 05:17:59;;;;;;;4.15;2.95;;;18.50;36.50;;;;;;5086075;28;20056;-51
2021/01/05 05:20:49;;;;;;;4.93;3.22;;;18.50;36.50;;;;;;5081694;28;20028;-51
2021/01/05 05:23:40;;;;;;;4.70;3.35;;;18.40;36.60;;;;;;5073755;28;20105;-51
2021/01/05 05:26:12;;;;;;;;;;;18.40;36.60;;;;;;5083799;28;20487;-51
2021/01/05 05:28:46;;;;;;;3.83;3.08;;;18.40;36.30;;;;;;5089041;28;19912;-52
2021/01/05 05:31:18;;;;;;;5.53;3.05;;;18.50;36.50;;;;;;5078307;28;20071;-52
2021/01/05 05:33:45;;;;;;;3.20;2.70;;;18.50;36.60;;;;;;5080881;28;20474;-51
2021/01/05 05:36:49;;;;;;;5.45;3.10;;;18.50;36.60;;;;;;5083622;28;20032;-51
2021/01/05 05:39:32;;;;;;;4.15;3.10;;;18.40;36.70;;;;;;5074542;28;20097;-51
2021/01/05 05:42:08;;;;;;;2.80;2.53;;;18.40;36.70;;;;;;5083526;28;20029;-52
2021/01/05 05:44:47;;;;;;;6.60;3.20;;;18.40;36.80;;;;;;5079089;28;20544;-52
2021/01/05 05:47:35;;;;;;;3.75;2.50;;;18.40;36.90;;;;;;5082313;28;20899;-52
2021/01/05 05:50:04;;;;;;;3.55;2.90;;;18.30;36.90;;;;;;5076529;28;20056;-52
2021/01/05 05:52:50;;;;;;;3.60;2.60;;;18.40;37.00;;;;;;5079276;28;20024;-52
2021/01/05 05:55:42;;;;;;;2.88;2.13;;;18.40;37.10;;;;;;5078961;28;20029;-52
2021/01/05 05:58:11;;;;;;;3.33;2.58;;;18.40;37.10;;;;;;5077529;28;20049;-52
2021/01/05 06:00:40;;;;;;;2.67;2.30;;;18.40;37.10;;;;;;5081865;28;20063;-52
2021/01/05 06:03:10;;;;;;;2.77;2.40;;;18.40;37.10;;;;;;5061457;28;20058;-52
2021/01/05 06:05:38;;;;;;;2.58;2.30;;;18.40;37.20;;;;;;5076582;28;20390;-52
2021/01/05 06:08:06;;;;;;;5.35;2.40;;;18.40;37.10;;;;;;5079217;28;20028;-52
2021/01/05 06:10:33;;;;;;;4.55;2.75;;;18.40;37.20;;;;;;5077728;28;20036;-52
2021/01/05 06:12:59;;;;;;;2.88;2.03;;;18.40;37.20;;;;;;5082056;28;20024;-52
2021/01/05 06:15:25;;;;;;;3.97;2.38;;;18.40;37.20;;;;;;5073943;28;20035;-52
2021/01/05 06:17:52;;;;;;;3.30;2.22;;;18.30;37.20;;;;;;5078328;28;20129;-52
2021/01/05 06:20:19;;;;;;;4.20;2.10;;;18.40;37.20;;;;;;5083794;28;20024;-52
2021/01/05 06:22:46;;;;;;;3.67;2.70;;;18.30;37.20;;;;;;5079598;28;20032;-52
2021/01/05 06:25:14;;;;;;;4.10;3.03;;;18.40;37.30;;;;;;5076934;28;20032;-52
2021/01/05 06:27:40;;;;;;;4.60;3.90;;;18.40;37.30;;;;;;5082490;28;20035;-52
2021/01/05 06:30:07;;;;;;;4.60;4.10;;;18.30;37.20;;;;;;5081519;28;20099;-52
2021/01/05 06:32:34;;;;;;;7.75;5.93;;;18.30;37.20;;;;;;5080701;28;20024;-52
2021/01/05 06:35:00;;;;;;;7.13;6.03;;;18.30;37.20;;;;;;5079847;28;20480;-52
2021/01/05 06:37:26;;;;;;;8.73;7.07;;;18.30;37.20;;;;;;5079910;28;20031;-52
2021/01/05 06:39:52;;;;;;;8.35;7.25;;;18.30;37.20;;;;;;5082570;28;20458;-52
2021/01/05 06:42:19;;;;;;;13.20;11.32;;;18.30;37.20;;;;;;5050040;28;20073;-52
2021/01/05 06:44:45;;;;;;;14.45;12.93;;;18.30;37.30;;;;;;5078172;28;20378;-52
2021/01/05 06:47:11;;;;;;;18.88;16.88;;;18.30;37.30;;;;;;5082389;28;20081;-52
2021/01/05 06:49:37;;;;;;;31.75;27.17;;;18.30;37.40;;;;;;5061912;28;20111;-52
2021/01/05 06:52:07;;;;;;;39.90;34.92;;;18.30;37.40;;;;;;5079671;28;20111;-52
2021/01/05 06:54:33;;;;;;;38.08;31.80;;;18.30;37.50;;;;;;5082515;28;20386;-52
2021/01/05 06:56:59;;;;;;;37.38;32.00;;;18.30;37.50;;;;;;5076583;28;20039;-51
2021/01/05 06:59:26;;;;;;;33.95;29.63;;;18.30;38.20;;;;;;5082026;28;20398;-51
2021/01/05 07:02:06;;;;;;;33.30;28.48;;;18.30;37.60;;;;;;5080981;28;21798;-51
2021/01/05 07:04:33;;;;;;;31.52;27.80;;;18.20;37.70;;;;;;5082091;28;20032;-51
2021/01/05 07:07:00;;;;;;;29.15;24.65;;;18.30;37.60;;;;;;5082053;28;20036;-52
2021/01/05 07:09:27;;;;;;;26.13;23.30;;;18.20;37.60;;;;;;5085772;28;20039;-52
2021/01/05 07:11:52;;;;;;;30.17;24.92;;;18.30;37.70;;;;;;5075359;28;20107;-52
2021/01/05 07:14:22;;;;;;;28.35;23.65;;;18.30;37.70;;;;;;5079007;28;20124;-52
2021/01/05 07:16:49;;;;;;;26.55;21.55;;;18.30;37.80;;;;;;5080217;28;20508;-52
2021/01/05 07:19:15;;;;;;;27.23;22.67;;;18.30;37.70;;;;;;5074835;28;20398;-52
2021/01/05 07:21:42;;;;;;;24.27;21.55;;;18.30;37.80;;;;;;5078779;28;20036;-52
2021/01/05 07:24:08;;;;;;;26.58;20.83;;;18.30;37.80;;;;;;5082989;28;20445;-52
2021/01/05 07:26:36;;;;;;;23.05;20.55;;;18.30;37.80;;;;;;5080697;28;20062;-52
2021/01/05 07:29:03;;;;;;;25.13;21.38;;;18.30;37.90;;;;;;5079092;28;20993;-52
2021/01/05 07:31:30;;;;;;;22.05;18.15;;;18.30;37.90;;;;;;5075390;28;20034;-52
2021/01/05 07:33:56;;;;;;;19.30;16.60;;;18.30;37.90;;;;;;5077676;28;20039;-52
2021/01/05 07:36:38;;;;;;;20.13;17.48;;;18.30;37.90;;;;;;5079779;28;20024;-52
2021/01/05 07:39:33;;;;;;;20.00;17.05;;;18.30;38.00;;;;;;5079042;28;20024;-52
2021/01/05 07:42:17;;;;;;;19.20;15.90;;;18.30;38.00;;;;;;5008016;28;20459;-52
2021/01/05 07:44:45;;;;;;;17.60;15.60;;;18.30;38.00;;;;;;5009290;28;20026;-53
2021/01/05 07:47:12;;;;;;;17.67;14.65;;;18.30;38.00;;;;;;5028251;28;20497;-52
2021/01/05 07:49:38;;;;;;;16.80;13.82;;;18.40;38.00;;;;;;5028771;28;20101;-52
2021/01/05 07:52:40;;;;;;;17.75;15.10;;;18.40;38.00;;;;;;5032308;28;20041;-51
2021/01/05 07:55:09;;;;;;;17.17;14.48;;;18.40;38.10;;;;;;5026239;28;20049;-51
2021/01/05 07:57:35;;;;;;;18.52;14.73;;;18.30;38.00;;;;;;5030088;28;20164;-51
2021/01/05 08:00:01;;;;;;;16.45;14.20;;;18.40;38.00;;;;;;5033357;28;20101;-51
2021/01/05 08:02:27;;;;;;;16.05;14.30;;;18.40;38.10;;;;;;5032358;28;20201;-51
2021/01/05 08:04:53;;;;;;;17.02;13.32;;;18.40;38.10;;;;;;5033667;28;20458;-50
2021/01/05 08:07:19;;;;;;;20.02;13.68;;;18.40;38.10;;;;;;5032390;28;20040;-49
2021/01/05 08:09:44;;;;;;;22.80;17.40;;;18.40;38.00;;;;;;5032750;28;20084;-49
2021/01/05 08:12:16;;;;;;;20.67;18.40;;;18.40;38.00;;;;;;5027380;28;20510;-50
2021/01/05 08:14:42;;;;;;;27.70;22.88;;;18.40;38.00;;;;;;5032477;28;20021;-50
2021/01/05 08:17:09;;;;;;;33.88;27.05;;;18.40;37.90;;;;;;5031213;28;20406;-49
2021/01/05 08:19:35;;;;;;;44.28;37.10;;;18.30;37.80;;;;;;5086629;28;20036;-50
2021/01/05 08:22:01;;;;;;;47.33;39.42;;;18.40;37.90;;;;;;5091942;28;20055;-50
2021/01/05 08:24:27;;;;;;;39.88;33.83;;;18.30;37.80;;;;;;5060361;28;20393;-50
2021/01/05 08:26:53;;;;;;;40.92;36.47;;;18.30;37.80;;;;;;5086942;28;20036;-49
2021/01/05 08:29:19;;;;;;;43.42;35.42;;;18.40;37.90;;;;;;5088086;28;20020;-50
2021/01/05 08:31:48;;;;;;;37.70;31.23;;;18.40;37.90;;;;;;5086249;28;20021;-50
2021/01/05 08:34:15;;;;;;;41.55;33.40;;;18.30;37.80;;;;;;5082067;28;20103;-50
2021/01/05 08:36:41;;;;;;;36.22;31.63;;;18.40;37.90;;;;;;5081597;28;20159;-50
2021/01/05 08:39:13;;;;;;;35.58;31.23;;;18.30;37.80;;;;;;5090520;28;20039;-50
2021/01/05 08:41:41;;;;;;;36.13;32.17;;;18.40;37.80;;;;;;5080422;28;20024;-50
2021/01/05 08:44:07;;;;;;;36.22;31.67;;;18.40;37.90;;;;;;5081484;28;20115;-50
2021/01/05 08:46:33;;;;;;;42.88;35.67;;;18.40;38.00;;;;;;5084030;28;20059;-49
2021/01/05 08:48:59;;;;;;;40.08;32.58;;;18.30;38.00;;;;;;5084505;28;20027;-51
2021/01/05 08:51:25;;;;;;;35.47;30.15;;;18.40;38.10;;;;;;5083503;28;20024;-50
2021/01/05 08:53:51;;;;;;;37.95;29.95;;;18.40;38.20;;;;;;5085368;28;20413;-53
2021/01/05 08:56:23;;;;;;;32.42;26.52;;;18.30;38.20;;;;;;5082836;28;20354;-61
2021/01/05 08:58:50;;;;;;;32.22;26.88;;;18.40;38.40;;;;;;5081079;28;20081;-60
2021/01/05 09:01:16;;;;;;;34.72;23.98;;;18.40;38.40;;;;;;5077049;28;20466;-61
2021/01/05 09:03:42;;;;;;;33.53;24.80;;;18.40;38.50;;;;;;5077093;28;20374;-61
2021/01/05 09:06:11;;;;;;;31.50;22.55;;;18.40;38.40;;;;;;5077791;28;20099;-61
2021/01/05 09:08:37;;;;;;;30.90;24.27;;;18.50;38.50;;;;;;5078727;28;20363;-61
2021/01/05 09:11:07;;;;;;;47.80;22.33;;;18.50;38.50;;;;;;5086710;28;20085;-61
2021/01/05 09:13:34;;;;;;;28.20;22.13;;;18.50;38.60;;;;;;5082354;28;20024;-60
2021/01/05 09:16:00;;;;;;;31.17;23.00;;;18.50;38.50;;;;;;5077561;28;20032;-60
2021/01/05 09:18:26;;;;;;;30.30;22.20;;;18.60;38.50;;;;;;5081100;28;20065;-61
2021/01/05 09:20:55;;;;;;;25.48;20.15;;;18.60;38.60;;;;;;5077505;28;20028;-61
2021/01/05 09:23:22;;;;;;;25.52;19.95;;;18.70;38.70;;;;;;5078172;28;20033;-62
2021/01/05 09:25:53;;;;;;;25.65;18.83;;;18.70;38.80;;;;;;5081067;28;20039;-60
2021/01/05 09:28:19;;;;;;;;;;;18.80;38.90;;;;;;5075076;28;20025;-60
2021/01/05 09:30:47;;;;;;;24.88;20.33;;;18.80;38.70;;;;;;5084927;28;20365;-60
2021/01/05 09:33:14;;;;;;;22.65;20.27;;;18.90;38.70;;;;;;5080041;28;20478;-60
2021/01/05 09:35:40;;;;;;;24.73;17.85;;;18.90;38.70;;;;;;5077333;28;20031;-62
2021/01/05 09:38:10;;;;;;;20.77;18.00;;;19.00;38.80;;;;;;5067091;28;20085;-61
2021/01/05 09:40:37;;;;;;;17.67;13.85;;;19.00;38.80;;;;;;5081383;28;20076;-61
2021/01/05 09:43:08;;;;;;;18.52;14.02;;;19.00;38.80;;;;;;5083904;28;20047;-61
2021/01/05 09:45:34;;;;;;;22.70;14.85;;;19.00;38.80;;;;;;5077073;28;20043;-61
2021/01/05 09:48:11;;;;;;;16.45;14.02;;;19.10;38.90;;;;;;5082915;28;20036;-53
2021/01/05 09:50:39;;;;;;;19.80;13.75;;;19.10;39.00;;;;;;5078529;28;20024;-52
2021/01/05 09:53:06;;;;;;;16.33;12.90;;;19.20;39.10;;;;;;5082417;28;20066;-52
2021/01/05 09:55:32;;;;;;;13.57;10.88;;;19.20;39.00;;;;;;5080786;28;20054;-51
2021/01/05 09:57:59;;;;;;;19.27;11.73;;;19.30;38.80;;;;;;5083423;28;20036;-51
2021/01/05 10:00:25;;;;;;;22.23;14.05;;;19.30;38.70;;;;;;5075279;28;20078;-51
2021/01/05 10:02:51;;;;;;;25.70;14.93;;;19.30;38.60;;;;;;5076918;28;20497;-51
2021/01/05 10:05:18;;;;;;;26.77;21.58;;;19.30;38.50;;;;;;5077030;28;20111;-51
2021/01/05 10:07:44;;;;;;;26.80;20.88;;;19.30;38.50;;;;;;5090684;28;20047;-51
2021/01/05 10:10:25;;;;;;;21.23;17.80;;;19.30;38.40;;;;;;5082166;28;20074;-51
2021/01/05 10:12:52;;;;;;;19.17;15.43;;;19.30;38.30;;;;;;5081751;28;20020;-52
2021/01/05 10:15:21;;;;;;;22.60;15.02;;;19.40;38.20;;;;;;5075294;28;20013;-52
2021/01/05 10:17:47;;;;;;;16.38;13.70;;;19.40;38.10;;;;;;5080159;28;20090;-51
2021/01/05 10:20:15;;;;;;;18.10;13.55;;;19.40;38.00;;;;;;5082169;28;20085;-51
2021/01/05 10:22:41;;;;;;;16.90;12.90;;;19.40;38.00;;;;;;5087619;28;20028;-51
2021/01/05 10:25:10;;;;;;;16.52;13.43;;;19.40;38.00;;;;;;5077428;28;20061;-51
2021/01/05 10:27:36;;;;;;;22.02;14.95;;;19.30;38.00;;;;;;5081015;28;20039;-51
2021/01/05 10:30:05;;;;;;;18.75;12.13;;;19.40;38.00;;;;;;5077134;28;20020;-52
2021/01/05 10:32:31;;;;;;;17.05;13.40;;;19.40;38.00;;;;;;5076329;28;20040;-52
2021/01/05 10:34:57;;;;;;;16.10;12.80;;;19.40;38.00;;;;;;5077138;28;20064;-52
2021/01/05 10:37:23;;;;;;;16.45;11.35;;;19.40;38.00;;;;;;5078665;28;20034;-50
2021/01/05 10:39:49;;;;;;;16.08;10.65;;;19.40;38.00;;;;;;5086390;28;20032;-53
2021/01/05 10:42:15;;;;;;;12.50;8.93;;;19.50;38.10;;;;;;5077654;28;20055;-54
2021/01/05 10:44:41;;;;;;;15.77;8.68;;;19.50;38.00;;;;;;5081866;28;20070;-53
2021/01/05 10:47:07;;;;;;;11.02;7.63;;;19.60;38.00;;;;;;5086656;28;20410;-53
2021/01/05 10:49:34;;;;;;;13.52;9.15;;;19.60;38.00;;;;;;5079276;28;20024;-52
2021/01/05 10:52:02;;;;;;;12.88;9.45;;;19.70;37.90;;;;;;5082871;28;20374;-53
2021/01/05 10:54:29;;;;;;;15.73;10.20;;;19.80;38.00;;;;;;5083796;28;20017;-52
2021/01/05 10:56:58;;;;;;;13.98;8.95;;;19.80;37.90;;;;;;5079463;28;20036;-52
2021/01/05 10:59:24;;;;;;;14.00;9.93;;;19.90;37.80;;;;;;5074808;28;20109;-52
2021/01/05 11:01:51;;;;;;;13.13;8.85;;;20.00;37.90;;;;;;5056613;28;20367;-52
2021/01/05 11:04:17;;;;;;;13.27;8.52;;;20.10;37.70;;;;;;5079299;28;20025;-52
2021/01/05 11:07:11;;;;;;;12.00;7.10;;;20.20;37.70;;;;;;5074683;28;20074;-52
2021/01/05 11:09:38;;;;;;;11.07;7.85;;;20.30;37.60;;;;;;5075959;28;20119;-52
2021/01/05 11:12:10;;;;;;;13.60;9.18;;;20.60;37.50;;;;;;5077002;28;20028;-52
2021/01/05 11:14:36;;;;;;;11.80;9.25;;;20.80;37.50;;;;;;5074226;28;20024;-53
2021/01/05 11:17:02;;;;;;;9.13;6.65;;;21.10;37.50;;;;;;5072893;28;20124;-53
2021/01/05 11:19:28;;;;;;;14.75;8.38;;;21.40;37.20;;;;;;5083543;28;20094;-53
2021/01/05 11:22:00;;;;;;;12.20;7.03;;;21.80;37.00;;;;;;5075844;28;20470;-53
2021/01/05 11:24:27;;;;;;;6.10;5.25;;;22.20;36.20;;;;;;5071154;28;20031;-53
2021/01/05 11:26:54;;;;;;;11.55;7.97;;;22.60;35.90;;;;;;5088913;28;20052;-53
2021/01/05 11:29:22;;;;;;;18.63;16.02;;;23.00;35.50;;;;;;5081435;28;20035;-53
2021/01/05 11:31:59;;;;;;;30.83;27.25;;;23.30;35.10;;;;;;5082375;28;20352;-53
2021/01/05 11:34:26;;;;;;;42.40;38.03;;;23.70;34.30;;;;;;5077973;28;20139;-63
2021/01/05 11:36:52;;;;;;;43.08;38.47;;;24.20;34.10;;;;;;5084164;28;20095;-63
2021/01/05 11:39:19;;;;;;;42.47;37.97;;;24.50;33.50;;;;;;5086651;28;20036;-63
2021/01/05 11:41:46;;;;;;;42.95;34.85;;;24.70;32.80;;;;;;5086114;28;20032;-62
2021/01/05 11:44:16;;;;;;;57.65;49.47;;;24.90;32.40;;;;;;5083225;28;20485;-62
2021/01/05 11:46:42;;;;;;;88.97;79.60;;;25.00;31.90;;;;;;5089459;28;20023;-62
2021/01/05 11:49:08;;;;;;;84.28;74.95;;;25.10;32.10;;;;;;5086466;28;20028;-62
2021/01/05 11:51:37;;;;;;;83.82;75.00;;;25.10;31.90;;;;;;5086225;28;20195;-62
2021/01/05 11:54:03;;;;;;;89.40;80.47;;;25.20;31.60;;;;;;5065312;28;20072;-62
2021/01/05 11:56:32;;;;;;;48.92;43.90;;;25.20;31.50;;;;;;5085003;28;20036;-62
2021/01/05 11:58:58;;;;;;;60.83;54.80;;;25.30;31.00;;;;;;5089978;28;20032;-62
2021/01/05 12:01:26;;;;;;;65.70;58.85;;;25.30;31.20;;;;;;5085937;28;20035;-63
2021/01/05 12:03:53;;;;;;;64.03;57.47;;;25.20;31.20;;;;;;5086693;28;20074;-64
2021/01/05 12:06:23;;;;;;;57.20;51.17;;;25.30;31.30;;;;;;5085985;28;20072;-60
2021/01/05 12:08:51;;;;;;;52.50;47.15;;;25.20;31.10;;;;;;5085819;28;20028;-62
2021/01/05 12:11:20;;;;;;;41.53;37.25;;;25.20;31.10;;;;;;5084437;28;20050;-61
2021/01/05 12:13:47;;;;;;;40.15;35.97;;;25.20;31.00;;;;;;5069630;28;20030;-59
2021/01/05 12:16:36;;;;;;;44.22;39.72;;;25.20;31.10;;;;;;5082990;28;20024;-59
2021/01/05 12:19:09;;;;;;;32.23;28.97;;;25.10;31.10;;;;;;5066185;28;20032;-59
2021/01/05 12:21:38;;;;;;;39.53;35.53;;;25.20;31.40;;;;;;5088723;28;20021;-61
2021/01/05 12:24:07;;;;;;;41.00;36.90;;;25.20;30.90;;;;;;5071322;28;20047;-60
2021/01/05 12:26:36;;;;;;;37.22;33.33;;;25.20;30.90;;;;;;5080308;28;20355;-60
2021/01/05 12:29:05;;;;;;;32.65;29.45;;;25.30;30.90;;;;;;5087564;28;20761;-60
2021/01/05 12:31:37;;;;;;;32.33;28.95;;;25.30;30.90;;;;;;5083788;28;20028;-60
2021/01/05 12:34:03;;;;;;;30.52;26.73;;;25.40;30.90;;;;;;5087072;28;20057;-60
2021/01/05 12:36:35;;;;;;;28.25;25.45;;;25.50;30.90;;;;;;5082212;28;20017;-59
2021/01/05 12:39:01;;;;;;;25.95;23.35;;;25.60;30.70;;;;;;5084632;28;20039;-50
2021/01/05 12:41:33;;;;;;;24.65;21.90;;;25.70;31.40;;;;;;5070572;28;20032;-50
2021/01/05 12:44:00;;;;;;;23.40;21.00;;;25.80;30.40;;;;;;5060733;28;20034;-50
2021/01/05 12:46:32;;;;;;;19.40;17.40;;;25.90;30.50;;;;;;5090322;28;20082;-50
2021/01/05 12:48:58;;;;;;;15.60;14.10;;;26.10;30.40;;;;;;5081056;28;20125;-50
2021/01/05 12:51:32;;;;;;;15.52;13.98;;;26.30;30.30;;;;;;5085168;28;20024;-51
2021/01/05 12:53:59;;;;;;;12.05;10.85;;;26.40;30.00;;;;;;5077911;28;20493;-51
2021/01/05 12:56:26;;;;;;;10.20;8.65;;;26.70;30.00;;;;;;5066630;28;20035;-50
2021/01/05 12:58:52;;;;;;;7.93;7.05;;;26.90;29.90;;;;;;5074727;28;20028;-50
2021/01/05 13:01:19;;;;;;;8.10;7.30;;;27.10;29.80;;;;;;5075984;28;20028;-49